Time;durP1;ratioP1;P1;durP2;ratioP2;P2;SDS_P1;SDS_P2;PMS_P1;PMS_P2;Temp;Humidity;BMP_temperature;BMP_pressure;BME280_temperature;BME280_humidity;BME280_pressure;Samples;Min_cycle;Max_cycle;Signal;HPM_P1;HPM_P2
2021/06/17 00:01:42;;;;;;;5.07;4.68;;;23.40;99.90;;;;;;4996510;28;20204;-75
2021/06/17 00:04:09;;;;;;;5.50;5.07;;;23.30;99.90;;;;;;4995449;28;20221;-75
2021/06/17 00:06:36;;;;;;;5.80;5.30;;;23.30;99.90;;;;;;5000779;28;20201;-75
2021/06/17 00:09:04;;;;;;;5.32;4.93;;;23.30;99.90;;;;;;4994822;28;20216;-74
2021/06/17 00:11:32;;;;;;;5.68;5.18;;;23.30;99.90;;;;;;4994352;28;20221;-74
2021/06/17 00:14:00;;;;;;;5.32;4.93;;;23.20;99.90;;;;;;4994626;28;20213;-78
2021/06/17 00:16:27;;;;;;;5.13;4.72;;;23.20;99.90;;;;;;4993532;28;20510;-74
2021/06/17 00:18:54;;;;;;;5.50;5.00;;;23.20;99.90;;;;;;4991061;28;20710;-75
2021/06/17 00:21:21;;;;;;;4.97;4.57;;;23.10;99.90;;;;;;4991686;28;20221;-74
2021/06/17 00:23:49;;;;;;;5.10;4.70;;;23.20;99.90;;;;;;4995943;28;20233;-75
2021/06/17 00:26:16;;;;;;;5.63;5.13;;;23.20;99.90;;;;;;5006219;28;20192;-74
2021/06/17 00:28:43;;;;;;;5.40;5.00;;;23.20;99.90;;;;;;4994095;28;20220;-75
2021/06/17 00:31:12;;;;;;;5.47;5.05;;;23.10;99.90;;;;;;5013054;28;20196;-76
2021/06/17 00:33:39;;;;;;;5.60;5.10;;;23.10;99.90;;;;;;4994448;28;20217;-75
2021/06/17 00:36:07;;;;;;;5.45;4.95;;;23.10;99.90;;;;;;4995422;28;20201;-75
2021/06/17 00:38:34;;;;;;;6.45;5.95;;;23.10;99.90;;;;;;4992433;28;20221;-75
2021/06/17 00:41:01;;;;;;;6.38;5.60;;;23.10;99.90;;;;;;4996979;28;20229;-75
2021/06/17 00:43:28;;;;;;;5.63;5.22;;;23.10;99.90;;;;;;4995238;28;20855;-75
2021/06/17 00:45:55;;;;;;;5.22;4.82;;;23.10;99.90;;;;;;4992867;28;20216;-75
2021/06/17 00:48:24;;;;;;;5.30;4.90;;;23.10;99.90;;;;;;4991793;28;20259;-75
2021/06/17 00:50:54;;;;;;;5.40;5.00;;;23.10;99.90;;;;;;4990293;28;20225;-77
2021/06/17 00:53:25;;;;;;;5.57;5.18;;;23.10;99.90;;;;;;4989840;28;20220;-77
2021/06/17 00:55:53;;;;;;;5.43;5.03;;;23.10;99.90;;;;;;4992548;28;20666;-77
2021/06/17 00:58:20;;;;;;;5.85;5.35;;;23.10;99.90;;;;;;4989699;28;20711;-75
2021/06/17 01:00:47;;;;;;;5.80;5.35;;;23.00;99.90;;;;;;4994655;28;20225;-74
2021/06/17 01:03:15;;;;;;;5.43;5.03;;;23.00;99.90;;;;;;4992284;28;20846;-74
2021/06/17 01:05:43;;;;;;;5.47;5.07;;;23.00;99.90;;;;;;4999691;28;20938;-75
2021/06/17 01:08:30;;;;;;;5.38;4.97;;;22.90;99.90;;;;;;4994548;28;20228;-74
2021/06/17 01:11:06;;;;;;;5.38;4.97;;;22.90;99.90;;;;;;4989501;28;20220;-74
2021/06/17 01:13:43;;;;;;;5.30;4.90;;;22.80;99.90;;;;;;4996399;28;20808;-75
2021/06/17 01:16:17;;;;;;;5.05;4.65;;;22.80;99.90;;;;;;5004756;28;20204;-75
2021/06/17 01:18:49;;;;;;;5.45;5.03;;;22.80;99.90;;;;;;4997082;28;20220;-73
2021/06/17 01:21:33;;;;;;;5.30;4.90;;;22.80;99.90;;;;;;4993382;28;20294;-75
2021/06/17 01:24:26;;;;;;;5.63;5.22;;;22.80;99.90;;;;;;4994461;28;20224;-75
2021/06/17 01:27:15;;;;;;;5.85;5.35;;;22.80;99.90;;;;;;5016449;28;20209;-75
2021/06/17 01:29:49;;;;;;;4.95;4.55;;;22.80;99.90;;;;;;4955188;28;20256;-75
2021/06/17 01:32:18;;;;;;;6.50;5.90;;;22.80;99.90;;;;;;4970935;28;20198;-76
2021/06/17 01:34:49;;;;;;;6.03;5.53;;;22.60;99.90;;;;;;4982248;28;20228;-74
2021/06/17 01:37:19;;;;;;;6.28;5.78;;;22.50;99.90;;;;;;4973992;28;20197;-75
2021/06/17 01:39:47;;;;;;;6.22;5.82;;;22.50;99.90;;;;;;4971376;28;20231;-74
2021/06/17 01:42:16;;;;;;;5.90;5.45;;;22.50;99.90;;;;;;4973515;28;20197;-75
2021/06/17 01:44:47;;;;;;;6.53;6.03;;;22.50;99.90;;;;;;4971896;28;20214;-75
2021/06/17 01:47:14;;;;;;;5.82;5.43;;;22.40;99.90;;;;;;4977870;28;20217;-75
2021/06/17 01:49:42;;;;;;;6.75;6.22;;;22.30;99.90;;;;;;4969329;28;20236;-75
2021/06/17 01:52:10;;;;;;;6.70;6.10;;;22.30;99.90;;;;;;4970075;28;20197;-74
2021/06/17 01:54:41;;;;;;;6.32;5.68;;;22.30;99.90;;;;;;4980027;28;20225;-74
2021/06/17 01:57:10;;;;;;;6.40;5.90;;;22.20;99.90;;;;;;4978145;28;20201;-74
2021/06/17 01:59:38;;;;;;;6.53;5.85;;;22.10;99.90;;;;;;4971845;28;20248;-74
2021/06/17 02:02:09;;;;;;;6.47;5.97;;;22.00;99.90;;;;;;4972464;28;20568;-76
2021/06/17 02:04:36;;;;;;;6.70;6.10;;;22.00;99.90;;;;;;4999299;28;20201;-77
2021/06/17 02:07:04;;;;;;;6.35;5.75;;;22.00;99.90;;;;;;4993853;28;20197;-75
2021/06/17 02:09:32;;;;;;;6.13;5.65;;;22.00;99.90;;;;;;4977049;28;20245;-76
2021/06/17 02:11:59;;;;;;;6.43;5.93;;;22.10;99.90;;;;;;4974478;28;20201;-76
2021/06/17 02:14:29;;;;;;;6.90;6.30;;;22.10;99.90;;;;;;4973338;28;20225;-76
2021/06/17 02:16:57;;;;;;;6.10;5.60;;;22.10;99.90;;;;;;4980953;28;20198;-76
2021/06/17 02:19:28;;;;;;;7.03;6.50;;;22.10;99.90;;;;;;4975685;28;20224;-77
2021/06/17 02:22:00;;;;;;;5.63;5.22;;;22.20;99.90;;;;;;4968166;28;20193;-76
2021/06/17 02:24:27;;;;;;;5.97;5.50;;;22.20;99.90;;;;;;4976760;28;20217;-76
2021/06/17 02:27:00;;;;;;;6.35;5.75;;;22.20;99.90;;;;;;4972167;28;20209;-74
2021/06/17 02:29:29;;;;;;;6.20;5.70;;;22.10;99.90;;;;;;4968286;28;20592;-76
2021/06/17 02:31:57;;;;;;;5.65;5.25;;;22.10;99.90;;;;;;4971668;28;20197;-76
2021/06/17 02:34:26;;;;;;;5.80;5.40;;;22.00;99.90;;;;;;4974892;28;20217;-77
2021/06/17 02:36:54;;;;;;;5.63;5.13;;;22.00;99.90;;;;;;4979848;28;20280;-76
2021/06/17 02:39:25;;;;;;;5.63;5.22;;;22.00;99.90;;;;;;4973766;28;20221;-76
2021/06/17 02:41:58;;;;;;;5.80;5.30;;;22.00;99.90;;;;;;4976997;28;20205;-76
2021/06/17 02:44:28;;;;;;;6.20;5.70;;;22.00;99.90;;;;;;4973935;28;21693;-77
2021/06/17 02:46:55;;;;;;;5.95;5.55;;;22.00;99.90;;;;;;4973278;28;20202;-76
2021/06/17 02:49:22;;;;;;;5.15;4.85;;;21.90;99.90;;;;;;4972758;28;20225;-76
2021/06/17 02:51:51;;;;;;;5.55;5.15;;;21.90;99.90;;;;;;4971625;28;20645;-75
2021/06/17 02:54:19;;;;;;;6.05;5.55;;;21.90;99.90;;;;;;4979710;28;20459;-77
2021/06/17 02:56:55;;;;;;;6.32;5.78;;;21.90;99.90;;;;;;4980610;28;20218;-75
2021/06/17 02:59:42;;;;;;;6.45;5.95;;;21.90;99.90;;;;;;4964037;28;20212;-77
2021/06/17 03:02:15;;;;;;;6.53;5.93;;;21.80;99.90;;;;;;4972823;28;20204;-76
2021/06/17 03:04:47;;;;;;;6.28;5.78;;;21.70;99.90;;;;;;4969386;28;20221;-76
2021/06/17 03:07:21;;;;;;;6.28;5.78;;;21.80;99.90;;;;;;4979240;28;20201;-77
2021/06/17 03:09:53;;;;;;;6.35;5.90;;;21.80;99.90;;;;;;4969600;28;20256;-76
2021/06/17 03:12:24;;;;;;;5.80;5.40;;;21.80;99.90;;;;;;4977159;28;20197;-74
2021/06/17 03:14:55;;;;;;;6.13;5.60;;;21.80;99.90;;;;;;4974320;28;20217;-74
2021/06/17 03:17:24;;;;;;;6.10;5.60;;;21.80;99.90;;;;;;4974659;28;20578;-74
2021/06/17 03:19:55;;;;;;;5.93;5.43;;;21.80;99.90;;;;;;4979713;28;20464;-74
2021/06/17 03:22:25;;;;;;;5.80;5.30;;;21.80;99.90;;;;;;4974100;28;20204;-74
2021/06/17 03:24:56;;;;;;;6.28;5.78;;;21.80;99.90;;;;;;4973328;28;20346;-74
2021/06/17 03:27:25;;;;;;;6.07;5.57;;;21.80;99.90;;;;;;4975492;28;20201;-74
2021/06/17 03:29:53;;;;;;;6.43;5.93;;;21.80;99.90;;;;;;4970831;28;20944;-74
2021/06/17 03:32:22;;;;;;;6.28;5.78;;;21.70;99.90;;;;;;4977244;28;20190;-74
2021/06/17 03:34:51;;;;;;;6.75;6.15;;;21.70;99.90;;;;;;4973562;28;20524;-73
2021/06/17 03:37:20;;;;;;;6.63;6.10;;;21.60;99.90;;;;;;4983817;28;20198;-75
2021/06/17 03:39:52;;;;;;;6.82;6.22;;;21.60;99.90;;;;;;4971902;28;20263;-74
2021/06/17 03:42:20;;;;;;;6.72;6.20;;;21.60;99.90;;;;;;4968311;28;20603;-74
2021/06/17 03:44:48;;;;;;;6.07;5.68;;;21.60;99.90;;;;;;4980530;28;20231;-75
2021/06/17 03:47:17;;;;;;;6.53;6.03;;;21.60;99.90;;;;;;4982165;28;20195;-74
2021/06/17 03:49:45;;;;;;;6.03;5.53;;;21.60;99.90;;;;;;4973393;28;20232;-72
2021/06/17 03:52:16;;;;;;;5.75;5.35;;;21.60;99.90;;;;;;4967631;28;20227;-74
2021/06/17 03:54:43;;;;;;;6.38;5.88;;;21.60;99.90;;;;;;4970321;28;20228;-74
2021/06/17 03:57:12;;;;;;;6.20;5.70;;;21.60;99.90;;;;;;4972183;28;20201;-75
2021/06/17 03:59:42;;;;;;;6.80;6.30;;;21.60;99.90;;;;;;4969090;28;20236;-75
2021/06/17 04:02:10;;;;;;;6.53;6.00;;;21.70;99.90;;;;;;4971158;28;20213;-74
2021/06/17 04:04:39;;;;;;;6.05;5.65;;;21.70;99.90;;;;;;4991699;28;20209;-75
2021/06/17 04:07:10;;;;;;;6.13;5.72;;;21.70;99.90;;;;;;4991655;28;20257;-74
2021/06/17 04:09:41;;;;;;;6.07;5.57;;;21.70;99.90;;;;;;4976059;28;20226;-74
2021/06/17 04:12:14;;;;;;;6.47;5.90;;;21.70;99.90;;;;;;4971369;28;20608;-74
2021/06/17 04:14:45;;;;;;;5.55;5.15;;;21.70;99.90;;;;;;4978589;28;20708;-74
2021/06/17 04:17:17;;;;;;;5.88;5.43;;;21.70;99.90;;;;;;4966484;28;20201;-75
2021/06/17 04:19:46;;;;;;;6.25;5.85;;;21.80;99.90;;;;;;4970738;28;20220;-73
2021/06/17 04:22:16;;;;;;;6.45;5.85;;;21.80;99.90;;;;;;4969343;28;20200;-74
2021/06/17 04:24:47;;;;;;;6.50;6.00;;;21.80;99.90;;;;;;4968385;28;20236;-74
2021/06/17 04:27:16;;;;;;;5.50;5.10;;;21.80;99.90;;;;;;4974765;28;20209;-74
2021/06/17 04:29:44;;;;;;;6.93;6.32;;;21.80;99.90;;;;;;4975428;28;20232;-75
2021/06/17 04:32:13;;;;;;;5.50;5.10;;;21.80;99.90;;;;;;4971061;28;20267;-74
2021/06/17 04:34:42;;;;;;;5.68;5.28;;;21.80;99.90;;;;;;4977979;28;20982;-76
2021/06/17 04:37:12;;;;;;;5.53;5.13;;;21.90;99.90;;;;;;4987223;28;20202;-74
2021/06/17 04:39:41;;;;;;;5.90;5.50;;;21.90;99.90;;;;;;4969398;28;20240;-74
2021/06/17 04:42:10;;;;;;;6.05;5.60;;;22.00;99.90;;;;;;4971222;28;20205;-74
2021/06/17 04:44:42;;;;;;;5.32;4.82;;;22.20;99.90;;;;;;4982830;28;20276;-74
2021/06/17 04:47:09;;;;;;;5.95;5.43;;;22.40;99.90;;;;;;4971135;28;20233;-74
2021/06/17 04:49:38;;;;;;;5.75;5.35;;;22.60;99.90;;;;;;4973417;28;20252;-75
2021/06/17 04:52:08;;;;;;;5.78;5.38;;;22.60;99.90;;;;;;4979638;28;20674;-71
2021/06/17 04:54:36;;;;;;;5.43;5.03;;;22.60;99.90;;;;;;4975292;28;20221;-75
2021/06/17 04:57:03;;;;;;;6.40;5.90;;;22.60;99.90;;;;;;4976622;28;20201;-74
2021/06/17 04:59:30;;;;;;;6.15;5.65;;;22.50;99.90;;;;;;4975075;28;20220;-73
2021/06/17 05:02:00;;;;;;;7.47;6.88;;;22.50;99.90;;;;;;4975277;28;20205;-75
2021/06/17 05:04:27;;;;;;;6.63;6.03;;;22.40;99.90;;;;;;4981542;28;20707;-75
2021/06/17 05:06:58;;;;;;;6.70;6.10;;;22.40;99.90;;;;;;4985025;28;20216;-75
2021/06/17 05:12:11;;;;;;;6.38;5.88;;;22.40;99.90;;;;;;4987504;28;20573;-73
2021/06/17 05:14:38;;;;;;;7.15;6.38;;;22.50;99.90;;;;;;4982919;28;20220;-73
2021/06/17 05:17:06;;;;;;;7.47;6.88;;;22.40;99.90;;;;;;4981006;28;20676;-73
2021/06/17 05:19:33;;;;;;;7.57;6.97;;;22.30;99.90;;;;;;4980265;28;20236;-72
2021/06/17 05:22:01;;;;;;;7.15;6.55;;;22.30;99.90;;;;;;4975692;28;20522;-73
2021/06/17 05:24:28;;;;;;;6.97;6.47;;;22.40;99.90;;;;;;4982917;28;20595;-73
2021/06/17 05:26:55;;;;;;;7.82;7.22;;;22.50;99.90;;;;;;4991644;28;20534;-75
2021/06/17 05:29:23;;;;;;;7.53;6.93;;;22.70;99.90;;;;;;4978531;28;20217;-72
2021/06/17 05:31:50;;;;;;;7.97;7.28;;;22.80;99.90;;;;;;4972788;28;20221;-74
2021/06/17 05:34:18;;;;;;;7.82;7.18;;;22.80;99.90;;;;;;4974552;28;20216;-74
2021/06/17 05:36:45;;;;;;;7.20;6.60;;;22.90;99.90;;;;;;4973895;28;20663;-74
2021/06/17 05:39:12;;;;;;;7.35;6.75;;;22.90;99.90;;;;;;4974786;28;20223;-76
2021/06/17 05:41:39;;;;;;;7.78;6.97;;;23.10;99.90;;;;;;4972446;28;20202;-74
2021/06/17 05:44:07;;;;;;;7.70;7.00;;;23.20;99.90;;;;;;4976524;28;20591;-74
2021/06/17 05:46:37;;;;;;;8.77;8.00;;;23.20;99.90;;;;;;4974297;28;20210;-75
2021/06/17 05:49:04;;;;;;;9.00;8.20;;;23.10;99.90;;;;;;4970844;28;20722;-74
2021/06/17 05:51:32;;;;;;;8.50;7.80;;;23.00;99.90;;;;;;4969952;28;20222;-74
2021/06/17 05:54:00;;;;;;;8.32;7.68;;;22.90;99.90;;;;;;4974397;28;20218;-74
2021/06/17 05:56:27;;;;;;;7.93;7.22;;;23.00;99.90;;;;;;4984947;28;20624;-75
2021/06/17 05:58:55;;;;;;;7.80;7.00;;;23.00;99.90;;;;;;4982880;28;20227;-74
2021/06/17 06:01:22;;;;;;;9.10;7.75;;;23.20;99.90;;;;;;4985858;28;20326;-74
2021/06/17 06:03:49;;;;;;;7.97;7.28;;;23.30;99.90;;;;;;4980564;28;20217;-74
2021/06/17 06:06:16;;;;;;;8.30;7.03;;;23.40;99.90;;;;;;4974365;28;20210;-74
2021/06/17 06:08:46;;;;;;;7.90;7.20;;;23.60;99.90;;;;;;4979963;28;20252;-74
2021/06/17 06:11:13;;;;;;;9.02;7.15;;;23.60;99.90;;;;;;4991382;28;20583;-74
2021/06/17 06:13:40;;;;;;;7.93;7.22;;;23.60;99.90;;;;;;4986185;28;20233;-72
2021/06/17 06:16:07;;;;;;;7.82;7.13;;;23.70;99.90;;;;;;4969171;28;20209;-74
2021/06/17 06:18:35;;;;;;;8.40;7.70;;;23.60;99.90;;;;;;4982186;28;20218;-74
2021/06/17 06:21:02;;;;;;;8.35;7.65;;;23.70;99.90;;;;;;4961429;28;20249;-74
2021/06/17 06:23:30;;;;;;;8.88;8.07;;;23.70;99.90;;;;;;4959566;28;20225;-73
2021/06/17 06:25:59;;;;;;;9.13;8.27;;;23.70;99.90;;;;;;4969318;28;20198;-74
2021/06/17 06:28:27;;;;;;;8.57;7.78;;;23.80;99.90;;;;;;4970322;28;20254;-74
2021/06/17 06:30:55;;;;;;;8.15;7.55;;;24.00;99.90;;;;;;4961332;28;20229;-73
2021/06/17 06:33:23;;;;;;;7.50;6.80;;;24.10;99.90;;;;;;4952693;28;20562;-74
2021/06/17 06:35:51;;;;;;;7.70;6.85;;;24.10;99.90;;;;;;4958482;28;20649;-74
2021/06/17 06:38:18;;;;;;;9.75;8.48;;;24.30;99.90;;;;;;4959850;28;20189;-73
2021/06/17 06:40:52;;;;;;;9.65;8.65;;;24.40;99.90;;;;;;4971417;28;20217;-74
2021/06/17 06:43:22;;;;;;;8.82;7.90;;;24.50;99.90;;;;;;4984442;28;20188;-75
2021/06/17 06:45:49;;;;;;;8.02;7.32;;;24.40;99.90;;;;;;4988933;28;20301;-75
2021/06/17 06:48:17;;;;;;;8.07;7.38;;;24.50;99.90;;;;;;4980623;28;20212;-75
2021/06/17 06:50:44;;;;;;;10.52;8.07;;;24.70;99.90;;;;;;4984589;28;20232;-75
2021/06/17 06:53:11;;;;;;;8.50;7.80;;;24.70;99.90;;;;;;4986794;28;20196;-76
2021/06/17 06:55:38;;;;;;;9.07;8.27;;;24.70;99.90;;;;;;4964446;28;20704;-75
2021/06/17 06:58:06;;;;;;;9.55;8.50;;;24.80;99.90;;;;;;4956277;28;20787;-74
2021/06/17 07:00:38;;;;;;;10.73;8.18;;;24.90;99.90;;;;;;4958903;28;20222;-78
2021/06/17 07:03:06;;;;;;;8.60;7.75;;;24.90;99.90;;;;;;4961560;28;20261;-75
2021/06/17 07:05:33;;;;;;;8.13;7.40;;;25.10;99.90;;;;;;4959227;28;20454;-74
2021/06/17 07:08:04;;;;;;;8.45;7.75;;;25.30;99.90;;;;;;4966207;28;20205;-77
2021/06/17 07:10:31;;;;;;;8.07;7.38;;;25.50;99.90;;;;;;4978323;28;21152;-75
2021/06/17 07:12:58;;;;;;;8.32;7.57;;;25.60;99.90;;;;;;4976101;28;20548;-75
2021/06/17 07:15:26;;;;;;;8.57;7.88;;;25.60;99.90;;;;;;4976913;28;20221;-75
2021/06/17 07:17:54;;;;;;;8.65;7.93;;;25.50;99.90;;;;;;4976695;28;20201;-76
2021/06/17 07:20:22;;;;;;;7.70;7.07;;;25.60;99.90;;;;;;4971873;28;20566;-75
2021/06/17 07:22:54;;;;;;;8.55;7.15;;;25.70;99.90;;;;;;4977428;28;20214;-76
2021/06/17 07:25:21;;;;;;;9.18;8.43;;;25.70;99.90;;;;;;4973546;28;20711;-75
2021/06/17 07:27:50;;;;;;;8.35;7.65;;;25.70;99.90;;;;;;4975420;28;20216;-75
2021/06/17 07:30:18;;;;;;;9.32;8.45;;;25.70;99.90;;;;;;4977468;28;20597;-76
2021/06/17 07:32:46;;;;;;;8.68;7.72;;;25.80;99.90;;;;;;4973946;28;20197;-75
2021/06/17 07:35:15;;;;;;;8.07;7.38;;;25.90;99.90;;;;;;4973462;28;20307;-75
2021/06/17 07:37:43;;;;;;;9.38;8.50;;;26.20;99.90;;;;;;4977686;28;20201;-75
2021/06/17 07:40:13;;;;;;;7.85;7.20;;;26.10;99.90;;;;;;4971824;28;20798;-76
2021/06/17 07:42:40;;;;;;;9.00;8.20;;;26.10;99.90;;;;;;4978050;28;20212;-77
2021/06/17 07:45:08;;;;;;;9.38;7.80;;;26.20;99.90;;;;;;4974561;28;20224;-76
2021/06/17 07:47:35;;;;;;;7.50;6.90;;;26.20;99.90;;;;;;4971483;28;20208;-74
2021/06/17 07:50:05;;;;;;;7.60;7.00;;;26.30;99.90;;;;;;4975763;28;20236;-75
2021/06/17 07:52:34;;;;;;;10.52;7.63;;;26.30;99.90;;;;;;4973029;28;20225;-77
2021/06/17 07:55:01;;;;;;;7.90;7.15;;;26.30;99.90;;;;;;4963865;28;20214;-76
2021/06/17 07:57:28;;;;;;;8.18;7.38;;;26.40;99.90;;;;;;4951779;28;20201;-76
2021/06/17 07:59:55;;;;;;;8.18;7.47;;;26.40;99.90;;;;;;4967901;28;20235;-75
2021/06/17 08:02:22;;;;;;;9.35;7.80;;;26.70;99.90;;;;;;4953786;28;20641;-74
2021/06/17 08:04:49;;;;;;;7.53;6.93;;;26.80;99.90;;;;;;4953264;28;20221;-75
2021/06/17 08:07:16;;;;;;;8.02;7.32;;;26.90;99.90;;;;;;4954271;28;20814;-76
2021/06/17 08:09:45;;;;;;;8.75;7.95;;;27.00;99.90;;;;;;4958823;28;20228;-74
2021/06/17 08:12:13;;;;;;;8.18;7.40;;;27.00;99.90;;;;;;4960291;28;20231;-75
2021/06/17 08:14:40;;;;;;;8.88;7.57;;;27.00;99.90;;;;;;4958192;28;20232;-76
2021/06/17 08:17:07;;;;;;;8.70;7.85;;;27.10;99.90;;;;;;4975718;28;20198;-75
2021/06/17 08:19:34;;;;;;;8.07;7.47;;;27.10;99.90;;;;;;4960583;28;20256;-76
2021/06/17 08:22:04;;;;;;;8.60;7.20;;;27.00;99.90;;;;;;4961766;28;20194;-75
2021/06/17 08:24:32;;;;;;;9.07;7.53;;;27.00;99.90;;;;;;4956710;28;20225;-75
2021/06/17 08:27:01;;;;;;;8.27;7.47;;;27.10;99.90;;;;;;4959392;28;20627;-75
2021/06/17 08:29:28;;;;;;;8.48;7.78;;;27.20;99.90;;;;;;4954990;28;21389;-76
2021/06/17 08:31:55;;;;;;;8.60;7.80;;;27.10;99.90;;;;;;4960927;28;20692;-75
2021/06/17 08:34:24;;;;;;;9.48;8.57;;;27.20;99.90;;;;;;4955701;28;20352;-75
2021/06/17 08:36:51;;;;;;;8.57;7.72;;;27.20;99.90;;;;;;4953292;28;20197;-76
2021/06/17 08:39:19;;;;;;;8.43;7.72;;;27.20;99.90;;;;;;4951296;28;20265;-75
2021/06/17 08:41:46;;;;;;;8.85;8.05;;;27.30;99.90;;;;;;4957002;28;20233;-75
2021/06/17 08:44:15;;;;;;;8.20;7.40;;;27.30;99.90;;;;;;4956299;28;20232;-75
2021/06/17 08:46:42;;;;;;;9.35;8.35;;;27.40;99.90;;;;;;4955783;28;20217;-76
2021/06/17 08:49:09;;;;;;;7.13;6.55;;;27.70;99.90;;;;;;4963223;28;20222;-77
2021/06/17 08:51:39;;;;;;;7.32;6.65;;;27.80;99.90;;;;;;4962815;28;20233;-75
2021/06/17 08:54:07;;;;;;;8.57;7.78;;;28.00;99.90;;;;;;4959089;28;20247;-74
2021/06/17 08:56:34;;;;;;;8.07;7.38;;;28.10;99.90;;;;;;4959044;28;20209;-73
2021/06/17 08:59:01;;;;;;;8.07;7.28;;;28.20;99.90;;;;;;4958108;28;20229;-75
2021/06/17 09:01:30;;;;;;;8.45;7.68;;;28.20;99.90;;;;;;4962764;28;20365;-77
2021/06/17 09:03:58;;;;;;;8.43;7.72;;;28.30;99.90;;;;;;4979936;28;20225;-77
2021/06/17 09:06:26;;;;;;;8.60;7.90;;;28.40;99.90;;;;;;4958822;28;20202;-75
2021/06/17 09:09:00;;;;;;;8.40;7.53;;;28.30;99.90;;;;;;4964893;28;20198;-76
2021/06/17 09:11:29;;;;;;;7.80;7.10;;;28.20;99.90;;;;;;4961232;28;20260;-75
2021/06/17 09:14:14;;;;;;;7.50;6.90;;;28.30;99.90;;;;;;4962624;28;20207;-77
2021/06/17 09:16:55;;;;;;;8.20;7.60;;;28.50;99.90;;;;;;5003248;28;20201;-80
2021/06/17 09:19:42;;;;;;;8.10;7.40;;;28.80;99.90;;;;;;5001703;28;20228;-78
2021/06/17 09:22:20;;;;;;;8.55;7.95;;;28.90;99.90;;;;;;4979801;28;20201;-77
2021/06/17 09:24:50;;;;;;;7.90;7.10;;;28.90;99.90;;;;;;4980549;28;20241;-76
2021/06/17 09:27:28;;;;;;;8.60;7.80;;;28.90;99.90;;;;;;4984449;28;20200;-74
2021/06/17 09:29:57;;;;;;;7.88;7.18;;;29.10;99.90;;;;;;4983263;28;20318;-77
2021/06/17 09:32:27;;;;;;;7.78;7.18;;;29.20;99.90;;;;;;4983322;28;20487;-73
2021/06/17 09:34:54;;;;;;;8.15;7.53;;;29.30;99.90;;;;;;4976100;28;20452;-77
2021/06/17 09:37:33;;;;;;;8.40;7.55;;;29.40;99.90;;;;;;4983455;28;20205;-77
2021/06/17 09:40:01;;;;;;;8.20;7.43;;;29.40;99.90;;;;;;4991601;28;20282;-77
2021/06/17 09:42:32;;;;;;;7.18;6.55;;;29.40;99.90;;;;;;4990075;28;20221;-77
2021/06/17 09:45:15;;;;;;;10.15;7.25;;;29.50;99.90;;;;;;4982842;28;20220;-77
2021/06/17 09:47:45;;;;;;;7.00;6.50;;;29.70;99.90;;;;;;4979234;28;20389;-78
2021/06/17 09:50:27;;;;;;;7.78;7.07;;;30.00;99.90;;;;;;4992758;28;20253;-77
2021/06/17 09:52:55;;;;;;;7.93;7.13;;;30.10;99.90;;;;;;4985772;28;20275;-76
2021/06/17 09:55:40;;;;;;;9.65;7.78;;;30.00;99.90;;;;;;4984848;28;20827;-75
2021/06/17 09:58:11;;;;;;;8.68;7.78;;;30.00;99.90;;;;;;4982415;28;20694;-76
2021/06/17 10:00:40;;;;;;;8.30;7.60;;;29.90;99.90;;;;;;4982434;28;20287;-76
2021/06/17 10:03:18;;;;;;;7.53;6.75;;;30.10;99.90;;;;;;4987380;28;20189;-75
2021/06/17 10:05:45;;;;;;;7.80;7.10;;;30.10;99.90;;;;;;4981783;28;20233;-76
2021/06/17 10:08:12;;;;;;;7.75;6.78;;;30.10;99.90;;;;;;4983704;28;20558;-76
2021/06/17 10:10:39;;;;;;;8.48;7.60;;;30.00;99.90;;;;;;4977036;28;20235;-77
2021/06/17 10:13:08;;;;;;;8.40;7.40;;;30.10;99.90;;;;;;4979633;28;20537;-77
2021/06/17 10:15:36;;;;;;;7.07;6.47;;;30.00;99.90;;;;;;4988630;28;20220;-76
2021/06/17 10:18:03;;;;;;;7.30;6.60;;;30.10;99.90;;;;;;4979832;28;20660;-77
2021/06/17 10:20:32;;;;;;;8.45;7.70;;;30.30;99.90;;;;;;4983134;28;20236;-78
2021/06/17 10:23:00;;;;;;;8.27;6.93;;;30.40;99.90;;;;;;4982892;28;20197;-76
2021/06/17 10:25:29;;;;;;;7.43;6.75;;;30.40;99.90;;;;;;4986205;28;20271;-77
2021/06/17 10:27:58;;;;;;;9.13;8.32;;;30.30;99.90;;;;;;4982567;28;20197;-78
2021/06/17 10:30:44;;;;;;;7.72;7.03;;;30.50;99.90;;;;;;4990781;28;20225;-77
2021/06/17 10:33:26;;;;;;;7.50;6.70;;;30.40;99.90;;;;;;4979436;28;20224;-77
2021/06/17 10:36:23;;;;;;;6.82;6.32;;;30.60;99.90;;;;;;4983473;28;20527;-77
2021/06/17 10:39:17;;;;;;;9.43;7.38;;;30.70;99.90;;;;;;4986535;28;20445;-76
2021/06/17 10:42:16;;;;;;;7.50;6.70;;;30.70;99.90;;;;;;4966965;28;20275;-79
2021/06/17 10:44:51;;;;;;;8.90;7.78;;;30.70;99.90;;;;;;4982605;28;20188;-78
2021/06/17 10:48:05;;;;;;;7.85;7.15;;;30.80;99.90;;;;;;4979114;28;20224;-76
2021/06/17 10:50:52;;;;;;;8.48;7.30;;;30.80;99.90;;;;;;4980980;28;20980;-75
2021/06/17 10:53:44;;;;;;;8.25;7.30;;;30.80;99.90;;;;;;4981869;28;20224;-76
2021/06/17 10:56:16;;;;;;;9.73;7.35;;;30.90;99.90;;;;;;4977325;28;20492;-76
2021/06/17 10:59:06;;;;;;;8.52;7.78;;;31.10;99.90;;;;;;4961689;28;20256;-77
2021/06/17 11:01:39;;;;;;;7.47;6.80;;;31.00;99.90;;;;;;4961635;28;20221;-77
2021/06/17 11:04:12;;;;;;;8.13;7.43;;;31.10;99.90;;;;;;4964374;28;20419;-77
2021/06/17 11:07:20;;;;;;;9.30;7.63;;;31.30;99.90;;;;;;4960765;28;20736;-77
2021/06/17 11:10:04;;;;;;;6.80;6.13;;;31.30;99.90;;;;;;4968870;28;20221;-78
2021/06/17 11:12:53;;;;;;;7.78;7.07;;;31.50;99.90;;;;;;4960963;28;20240;-78
2021/06/17 11:15:42;;;;;;;6.97;6.28;;;31.50;99.90;;;;;;4966193;28;20190;-77
2021/06/17 11:18:09;;;;;;;6.45;5.85;;;31.60;99.90;;;;;;4966140;28;20703;-75
2021/06/17 11:20:41;;;;;;;6.57;5.97;;;32.00;99.90;;;;;;4973005;28;20291;-78
2021/06/17 11:23:09;;;;;;;5.90;5.40;;;32.00;99.90;;;;;;4972525;28;20224;-78
2021/06/17 11:25:45;;;;;;;5.60;5.20;;;32.10;99.90;;;;;;4969908;28;20209;-77
2021/06/17 11:28:15;;;;;;;5.55;5.05;;;32.50;99.90;;;;;;4961270;28;20280;-76
2021/06/17 11:30:58;;;;;;;5.78;5.28;;;33.00;99.90;;;;;;4959803;28;20294;-77
2021/06/17 11:33:46;;;;;;;6.53;5.88;;;33.30;99.90;;;;;;4964601;28;20229;-75
2021/06/17 11:36:20;;;;;;;7.15;6.10;;;33.30;99.90;;;;;;4968766;28;20196;-76
2021/06/17 11:38:52;;;;;;;5.80;5.30;;;33.20;99.90;;;;;;4957978;28;20299;-77
2021/06/17 11:41:24;;;;;;;7.80;6.18;;;32.80;99.90;;;;;;4972606;28;20234;-78
2021/06/17 11:44:00;;;;;;;6.07;5.55;;;32.70;99.90;;;;;;4979935;28;20217;-76
2021/06/17 11:46:30;;;;;;;8.63;5.70;;;32.60;99.90;;;;;;4968608;28;20996;-77
2021/06/17 11:49:00;;;;;;;5.68;5.22;;;32.80;99.90;;;;;;4966186;28;20236;-78
2021/06/17 11:51:39;;;;;;;5.82;5.32;;;32.90;99.90;;;;;;4966108;28;20217;-78
2021/06/17 11:54:07;;;;;;;6.22;5.63;;;33.00;99.90;;;;;;4987209;28;20235;-78
2021/06/17 11:56:35;;;;;;;5.65;5.15;;;33.00;99.90;;;;;;4985960;28;20197;-78
2021/06/17 11:59:20;;;;;;;5.75;5.35;;;33.20;99.90;;;;;;4980305;28;20887;-76
2021/06/17 12:02:18;;;;;;;5.93;5.32;;;33.30;99.90;;;;;;4986092;28;20746;-76
2021/06/17 12:04:54;;;;;;;5.60;5.00;;;33.10;99.90;;;;;;4980697;28;20372;-78
2021/06/17 12:07:25;;;;;;;5.38;4.97;;;32.80;99.90;;;;;;4984932;28;20244;-78
2021/06/17 12:09:54;;;;;;;5.32;4.82;;;32.30;99.90;;;;;;4987871;28;20236;-78
2021/06/17 12:12:25;;;;;;;5.05;4.65;;;32.10;99.90;;;;;;5000648;28;20279;-77
2021/06/17 12:14:57;;;;;;;5.55;5.05;;;32.30;99.90;;;;;;4987546;28;20201;-77
2021/06/17 12:17:45;;;;;;;5.32;4.93;;;32.40;99.90;;;;;;4982629;28;20225;-77
2021/06/17 12:20:16;;;;;;;4.85;4.47;;;32.60;99.90;;;;;;4978958;28;20727;-76
2021/06/17 12:22:45;;;;;;;5.78;4.40;;;32.40;99.90;;;;;;4980207;28;20304;-78
2021/06/17 12:25:13;;;;;;;7.32;5.20;;;31.90;99.90;;;;;;4989606;28;20209;-75
2021/06/17 12:27:46;;;;;;;5.05;4.65;;;31.50;99.90;;;;;;4984349;28;20292;-77
2021/06/17 12:30:28;;;;;;;5.65;3.85;;;31.00;99.90;;;;;;4988500;28;20213;-77
2021/06/17 12:32:56;;;;;;;4.47;4.15;;;30.80;99.90;;;;;;4981262;28;20589;-78
2021/06/17 12:35:24;;;;;;;5.20;4.70;;;30.80;99.90;;;;;;4984529;28;20197;-78
2021/06/17 12:37:58;;;;;;;5.07;4.43;;;30.80;99.90;;;;;;4984781;28;20268;-76
2021/06/17 12:40:30;;;;;;;6.18;5.68;;;31.00;99.90;;;;;;4976181;28;20733;-77
2021/06/17 12:43:10;;;;;;;5.45;4.95;;;31.50;99.90;;;;;;4982337;28;20217;-77
2021/06/17 12:45:38;;;;;;;6.22;4.78;;;31.80;99.90;;;;;;4986527;28;20196;-79
2021/06/17 12:48:21;;;;;;;5.93;5.32;;;32.00;99.90;;;;;;4983761;28;20212;-76
2021/06/17 12:53:47;;;;;;;5.35;4.85;;;32.40;99.90;;;;;;4980370;28;20597;-78
2021/06/17 12:56:15;;;;;;;9.55;5.20;;;32.30;99.90;;;;;;4994962;28;20428;-77
2021/06/17 12:58:53;;;;;;;5.13;4.72;;;32.30;99.90;;;;;;4976171;28;20626;-77
2021/06/17 13:01:22;;;;;;;5.10;4.60;;;32.30;99.90;;;;;;4969395;28;20400;-77
2021/06/17 13:03:50;;;;;;;5.35;4.60;;;32.50;99.90;;;;;;4965882;28;20284;-76
2021/06/17 13:06:36;;;;;;;7.90;5.03;;;32.40;99.90;;;;;;4965039;28;20194;-77
2021/06/17 13:09:03;;;;;;;5.85;5.07;;;32.10;99.90;;;;;;4962131;28;20221;-76
2021/06/17 13:11:32;;;;;;;8.65;5.28;;;32.10;99.90;;;;;;4966465;28;20224;-77